createdAt,value
2019-05-23T00:01:34.648Z,51230.34
2019-05-23T00:04:07.526Z,51211.07
2019-05-23T00:06:37.456Z,51267.85
2019-05-23T00:09:06.752Z,51255.68
2019-05-23T00:11:53.012Z,51297.25
2019-05-23T00:14:46.540Z,51302.32
2019-05-23T00:17:18.718Z,51272.92
2019-05-23T00:19:47.714Z,51345.91
2019-05-23T00:22:16.996Z,51331.72
2019-05-23T00:24:46.055Z,51365.18
2019-05-23T00:27:17.066Z,51378.36
2019-05-23T00:29:48.030Z,51437.16
2019-05-23T00:32:24.600Z,51393.57
2019-05-23T00:34:54.874Z,51420.94
2019-05-23T00:37:24.529Z,51415.87
2019-05-23T00:39:54.073Z,51467.58
2019-05-23T00:42:22.842Z,51493.94
2019-05-23T00:44:52.303Z,51455.41
2019-05-23T00:47:20.811Z,51445.27
2019-05-23T00:49:50.179Z,51453.39
2019-05-23T00:52:19.019Z,51481.77
2019-05-23T00:54:48.338Z,51559.84
2019-05-23T00:57:18.599Z,51527.40
2019-05-23T00:59:48.685Z,51534.50
2019-05-23T01:02:17.305Z,51542.61
2019-05-23T01:04:47.609Z,51580.12
2019-05-23T01:07:17.029Z,51590.26
2019-05-23T01:09:46.130Z,51549.71
2019-05-23T01:12:14.918Z,51581.14
2019-05-23T01:14:43.456Z,51597.36
2019-05-23T01:17:12.069Z,51594.32
2019-05-23T01:19:41.019Z,51614.60
2019-05-23T01:22:12.591Z,51670.36
2019-05-23T01:24:45.643Z,51629.81
2019-05-23T01:27:14.178Z,51627.78
2019-05-23T01:29:49.675Z,51678.48
2019-05-23T01:32:29.556Z,51650.09
2019-05-23T01:34:58.681Z,51683.55
2019-05-23T01:37:27.239Z,51689.63
2019-05-23T01:39:55.755Z,51722.07
2019-05-23T01:42:26.243Z,51754.52
2019-05-23T01:44:55.674Z,51769.73
2019-05-23T01:47:24.270Z,51790.01
2019-05-23T01:49:53.238Z,51767.70
2019-05-23T01:52:22.438Z,51767.70
2019-05-23T01:54:51.123Z,51785.96
2019-05-23T01:57:19.741Z,51814.35
2019-05-23T01:59:48.269Z,51804.21
2019-05-23T02:02:18.641Z,51834.62
2019-05-23T02:04:47.329Z,51811.30
2019-05-23T02:07:16.521Z,51866.06
2019-05-23T02:09:44.971Z,51853.89
2019-05-23T02:12:14.039Z,51869.10
2019-05-23T02:14:44.267Z,51873.16
2019-05-23T02:17:14.525Z,51911.69
2019-05-23T02:19:43.464Z,51944.14
2019-05-23T02:22:13.282Z,51955.29
2019-05-23T02:24:42.320Z,51942.11
2019-05-23T02:27:12.008Z,51964.42
2019-05-23T02:29:42.853Z,51967.46
2019-05-23T02:32:12.067Z,51965.43
2019-05-23T02:34:41.264Z,51997.88
2019-05-23T02:37:20.137Z,52002.95
2019-05-23T02:39:52.918Z,52003.97
2019-05-23T02:42:38.532Z,52022.22
2019-05-23T02:45:10.001Z,52022.22
2019-05-23T02:47:43.174Z,52035.40
2019-05-23T02:50:16.247Z,52008.02
2019-05-23T02:52:50.599Z,52022.22
2019-05-23T02:55:25.029Z,52015.12
2019-05-23T02:57:55.222Z,52031.34
2019-05-23T03:00:54.312Z,52036.41
2019-05-23T03:03:19.444Z,52073.93
2019-05-23T03:05:48.310Z,52087.12
2019-05-23T03:08:17.268Z,52121.60
2019-05-23T03:11:07.163Z,52153.03
2019-05-23T03:13:37.444Z,52178.38
2019-05-23T03:16:07.667Z,52315.29
2019-05-23T03:18:40.309Z,52315.29
2019-05-23T03:21:08.984Z,52344.70
2019-05-23T03:23:37.887Z,52386.27
2019-05-23T03:26:21.123Z,52455.24
2019-05-23T03:28:50.170Z,52455.24
2019-05-23T03:31:30.630Z,52547.53
2019-05-23T03:33:54.978Z,52559.70
2019-05-23T03:36:24.910Z,52642.86
2019-05-23T03:38:55.220Z,52684.44
2019-05-23T03:41:24.095Z,52824.41
2019-05-23T03:43:55.599Z,52909.60
2019-05-23T03:46:25.924Z,52965.39
2019-05-23T03:48:56.050Z,53006.97
2019-05-23T03:51:25.215Z,53110.43
2019-05-23T03:53:54.584Z,53132.75
2019-05-23T03:56:23.002Z,53179.41
2019-05-23T03:58:54.280Z,53292.00
2019-05-23T04:01:24.319Z,53292.00
2019-05-23T04:03:54.704Z,53327.50
2019-05-23T04:06:23.774Z,53371.12
2019-05-23T04:08:53.126Z,53371.12
2019-05-23T04:11:21.681Z,53385.32
2019-05-23T04:13:50.815Z,53369.09
2019-05-23T04:16:20.172Z,53369.09
2019-05-23T04:18:49.049Z,53365.03
2019-05-23T04:21:19.077Z,53365.03
2019-05-23T04:23:47.528Z,53366.05
2019-05-23T04:26:16.160Z,53373.15
2019-05-23T04:28:44.750Z,53373.15
2019-05-23T04:31:13.697Z,53371.12
2019-05-23T04:33:42.490Z,53353.88
2019-05-23T04:36:10.902Z,53382.28
2019-05-23T04:38:39.562Z,53382.28
2019-05-23T04:41:07.992Z,53340.69
2019-05-23T04:43:36.397Z,53340.69
2019-05-23T04:46:05.623Z,53317.36
2019-05-23T04:48:34.408Z,53306.20
2019-05-23T04:51:04.126Z,53306.20
2019-05-23T04:53:32.821Z,53316.34
2019-05-23T04:56:01.888Z,53316.34
2019-05-23T04:58:31.254Z,53317.36
2019-05-23T05:01:00.712Z,53260.55
2019-05-23T05:03:30.321Z,53260.55
2019-05-23T05:05:58.876Z,53235.20
2019-05-23T05:08:27.366Z,53180.42
2019-05-23T05:10:56.347Z,53155.06
2019-05-23T05:13:26.052Z,53140.86
2019-05-23T05:15:55.901Z,53102.32
2019-05-23T05:18:24.726Z,53071.89
2019-05-23T05:20:53.465Z,53045.52
2019-05-23T05:23:22.155Z,53019.14
2019-05-23T05:25:50.543Z,52967.41
2019-05-23T05:28:19.705Z,52981.61
2019-05-23T05:30:48.278Z,52977.56
2019-05-23T05:33:17.589Z,52928.87
2019-05-23T05:35:46.313Z,52928.87
2019-05-23T05:38:17.194Z,52872.07
2019-05-23T05:40:46.400Z,52878.16
2019-05-23T05:43:15.128Z,52838.60
2019-05-23T05:45:44.169Z,52832.52
2019-05-23T05:48:12.805Z,52862.95
2019-05-23T05:50:41.200Z,52787.89
2019-05-23T05:53:10.266Z,52738.20
2019-05-23T05:55:38.664Z,52785.86
2019-05-23T05:58:07.616Z,52726.02
2019-05-23T06:00:49.703Z,52712.84
2019-05-23T06:03:18.172Z,52674.30
2019-05-23T06:05:48.205Z,52661.11
2019-05-23T06:08:18.549Z,52587.08
2019-05-23T06:10:47.108Z,52566.80
2019-05-23T06:13:16.085Z,52494.79
2019-05-23T06:15:44.856Z,52475.52
2019-05-23T06:18:13.639Z,52451.18
2019-05-23T06:20:44.939Z,52428.87
2019-05-23T06:23:13.411Z,52419.74
2019-05-23T06:25:41.980Z,52435.97
2019-05-23T06:28:11.844Z,52381.20
2019-05-23T06:30:41.652Z,52349.77
2019-05-23T06:33:22.700Z,52347.74
2019-05-23T06:35:41.364Z,52320.36
2019-05-23T06:38:10.964Z,52305.14
2019-05-23T06:40:40.160Z,52274.72
2019-05-23T06:43:09.555Z,52281.82
2019-05-23T06:45:40.502Z,52295.00
2019-05-23T06:48:09.919Z,52245.31
2019-05-23T06:50:38.539Z,52166.21
2019-05-23T06:53:07.284Z,52191.57
2019-05-23T06:55:35.833Z,52169.26
2019-05-23T06:58:05.723Z,52084.08
2019-05-23T07:00:35.184Z,52042.50
2019-05-23T07:03:04.355Z,52038.45
2019-05-23T07:05:35.809Z,51950.22
2019-05-23T07:08:05.339Z,51891.41
2019-05-23T07:10:34.064Z,51834.62
2019-05-23T07:13:03.124Z,51896.48
2019-05-23T07:15:32.000Z,51911.69
2019-05-23T07:18:01.735Z,51981.66
2019-05-23T07:20:30.378Z,51870.12
2019-05-23T07:22:59.706Z,51839.70
2019-05-23T07:25:28.163Z,51698.75
2019-05-23T07:27:56.854Z,51651.10
2019-05-23T07:30:26.682Z,51545.65
2019-05-23T07:32:55.648Z,51473.66
2019-05-23T07:35:25.963Z,51420.94
2019-05-23T07:37:54.412Z,51479.75
2019-05-23T07:40:26.046Z,51536.53
2019-05-23T07:42:54.609Z,51452.37
2019-05-23T07:45:27.860Z,51398.64
2019-05-23T07:47:56.279Z,51313.47
2019-05-23T07:50:24.662Z,51337.80
2019-05-23T07:52:55.261Z,51348.96
2019-05-23T07:55:28.219Z,51350.98
2019-05-23T07:57:56.920Z,51264.80
2019-05-23T08:00:29.720Z,51216.14
2019-05-23T08:03:00.647Z,51081.30
2019-05-23T08:05:29.171Z,51090.43
2019-05-23T08:07:57.942Z,51052.92
2019-05-23T08:10:33.619Z,50962.69
2019-05-23T08:12:58.062Z,51015.41
2019-05-23T08:15:27.842Z,50983.98
2019-05-23T08:17:56.538Z,50874.50
2019-05-23T08:20:25.933Z,50856.25
2019-05-23T08:22:54.686Z,50775.15
2019-05-23T08:25:23.585Z,50690.00
2019-05-23T08:27:52.391Z,50750.82
2019-05-23T08:30:21.477Z,50799.48
2019-05-23T08:32:49.867Z,50708.25
2019-05-23T08:35:18.363Z,50702.16
2019-05-23T08:37:47.401Z,50652.49
2019-05-23T08:40:17.024Z,50647.42
2019-05-23T08:42:45.908Z,50481.18
2019-05-23T08:45:17.402Z,50525.79
2019-05-23T08:47:46.319Z,50489.29
2019-05-23T08:50:16.909Z,50334.21
2019-05-23T08:52:45.758Z,50351.44
2019-05-23T08:55:20.160Z,50378.81
2019-05-23T08:57:48.712Z,50122.37
2019-05-23T09:00:18.374Z,50129.46
2019-05-23T09:02:48.057Z,50061.56
2019-05-23T09:05:18.963Z,49760.55
2019-05-23T09:07:48.403Z,49864.94
2019-05-23T09:10:17.885Z,49765.62
2019-05-23T09:12:46.601Z,49664.27
2019-05-23T09:15:15.357Z,49638.94
2019-05-23T09:17:52.942Z,49355.19
2019-05-23T09:20:15.047Z,49580.16
2019-05-23T09:22:43.451Z,49253.85
2019-05-23T09:25:12.775Z,49093.75
2019-05-23T09:27:41.559Z,49012.69
2019-05-23T09:30:11.763Z,49018.77
2019-05-23T09:32:40.996Z,48789.78
2019-05-23T09:35:20.827Z,48776.61
2019-05-23T09:37:42.201Z,48739.12
2019-05-23T09:40:11.204Z,48297.39
2019-05-23T09:42:39.606Z,48341.96
2019-05-23T09:45:08.119Z,48047.16
2019-05-23T09:47:36.996Z,47755.43
2019-05-23T09:50:10.547Z,47553.86
2019-05-23T09:52:39.118Z,47620.71
2019-05-23T09:55:08.320Z,47715.92
2019-05-23T09:57:36.710Z,47683.51
2019-05-23T10:00:10.994Z,47513.34
2019-05-23T10:02:39.958Z,47355.33
2019-05-23T10:05:10.705Z,46921.86
2019-05-23T10:07:39.602Z,47072.76
2019-05-23T10:10:16.587Z,46787.17
2019-05-23T10:12:45.107Z,46884.39
2019-05-23T10:15:18.519Z,46242.38
2019-05-23T10:17:46.998Z,45899.14
2019-05-23T10:20:16.458Z,46448.95
2019-05-23T10:22:45.162Z,46419.58
2019-05-23T10:25:13.788Z,46385.15
2019-05-23T10:27:42.282Z,46107.71
2019-05-23T10:30:12.646Z,46248.45
2019-05-23T10:32:41.074Z,45276.52
2019-05-23T10:35:09.846Z,45407.11
2019-05-23T10:37:38.634Z,45891.04
2019-05-23T10:40:08.387Z,45373.70
2019-05-23T10:42:37.972Z,45018.39
2019-05-23T10:45:10.085Z,44667.16
2019-05-23T10:47:38.921Z,44059.91
2019-05-23T10:50:10.109Z,44211.71
2019-05-23T10:52:38.843Z,44276.48
2019-05-23T10:55:07.568Z,45158.08
2019-05-23T10:57:36.534Z,45265.38
2019-05-23T11:00:11.448Z,45235.02
2019-05-23T11:02:40.837Z,44830.12
2019-05-23T11:05:13.610Z,44391.86
2019-05-23T11:07:41.948Z,44519.39
2019-05-23T11:10:11.686Z,44645.90
2019-05-23T11:12:40.820Z,44599.34
2019-05-23T11:15:09.705Z,44488.01
2019-05-23T11:17:38.898Z,44588.21
2019-05-23T11:20:08.423Z,44882.75
2019-05-23T11:22:36.827Z,44850.36
2019-05-23T11:25:07.801Z,44970.81
2019-05-23T11:27:37.037Z,45200.60
2019-05-23T11:30:09.932Z,45702.72
2019-05-23T11:32:38.331Z,46178.59
2019-05-23T11:35:07.285Z,46096.57
2019-05-23T11:37:35.924Z,45667.29
2019-05-23T11:40:09.658Z,45738.16
2019-05-23T11:42:38.065Z,45486.07
2019-05-23T11:45:08.071Z,45423.30
2019-05-23T11:47:36.699Z,45229.95
2019-05-23T11:50:06.770Z,45529.61
2019-05-23T11:52:35.229Z,45661.21
2019-05-23T11:55:08.295Z,46425.66
2019-05-23T11:57:41.376Z,45850.54
2019-05-23T12:00:12.276Z,46449.96
2019-05-23T12:02:45.500Z,45770.55
2019-05-23T12:05:16.250Z,45672.35
2019-05-23T12:07:44.958Z,44783.55
2019-05-23T12:10:13.758Z,44690.44
2019-05-23T12:12:42.488Z,46184.66
2019-05-23T12:15:14.066Z,45172.25
2019-05-23T12:17:42.914Z,44677.28
2019-05-23T12:20:12.250Z,44186.41
2019-05-23T12:22:41.052Z,44093.31
2019-05-23T12:25:21.784Z,44898.95
2019-05-23T12:27:43.290Z,44654.00
2019-05-23T12:30:14.906Z,44981.95
2019-05-23T12:32:43.679Z,44770.40
2019-05-23T12:35:12.526Z,44725.86
2019-05-23T12:37:41.006Z,44563.92
2019-05-23T12:40:11.367Z,44788.62
2019-05-23T12:42:39.853Z,45352.44
2019-05-23T12:45:09.776Z,45178.33
2019-05-23T12:47:43.083Z,45338.27
2019-05-23T12:50:13.581Z,45183.39
2019-05-23T12:52:41.979Z,45221.86
2019-05-23T12:55:10.785Z,44632.74
2019-05-23T12:57:39.355Z,45399.01
2019-05-23T13:00:10.489Z,44500.16
2019-05-23T13:02:38.902Z,44866.55
2019-05-23T13:05:09.009Z,45296.77
2019-05-23T13:07:37.930Z,45128.72
2019-05-23T13:10:08.074Z,45339.28
2019-05-23T13:12:36.510Z,45789.79
2019-05-23T13:15:06.911Z,45012.32
2019-05-23T13:17:35.523Z,44841.25
2019-05-23T13:20:09.364Z,44174.27
2019-05-23T13:22:38.001Z,44472.83
2019-05-23T13:25:10.356Z,44119.62
2019-05-23T13:27:38.794Z,44295.71
2019-05-23T13:30:08.485Z,44809.87
2019-05-23T13:32:37.744Z,44488.01
2019-05-23T13:35:11.091Z,45240.08
2019-05-23T13:37:52.891Z,45652.10
2019-05-23T13:40:12.327Z,45490.12
2019-05-23T13:42:43.016Z,44557.85
2019-05-23T13:45:13.926Z,46209.98
2019-05-23T13:47:46.254Z,45840.41
2019-05-23T13:50:15.774Z,46088.47
2019-05-23T13:52:46.198Z,45617.68
2019-05-23T13:55:15.317Z,45179.34
2019-05-23T13:57:43.780Z,44841.25
2019-05-23T14:00:13.491Z,44747.12
2019-05-23T14:02:42.182Z,45206.67
2019-05-23T14:05:10.976Z,45203.63
2019-05-23T14:07:39.660Z,45701.71
2019-05-23T14:10:10.185Z,45439.50
2019-05-23T14:12:39.085Z,45588.32
2019-05-23T14:15:10.284Z,45583.26
2019-05-23T14:17:45.864Z,45853.57
2019-05-23T14:20:15.199Z,46723.37
2019-05-23T14:22:57.832Z,46966.42
2019-05-23T14:25:26.265Z,46819.58
2019-05-23T14:28:02.085Z,46970.47
2019-05-23T14:30:38.415Z,46967.43
2019-05-23T14:33:27.275Z,46915.79
2019-05-23T14:36:09.902Z,46824.64
2019-05-23T14:38:38.540Z,46799.32
2019-05-23T14:41:07.614Z,46485.40
2019-05-23T14:43:36.221Z,46682.86
2019-05-23T14:46:09.560Z,46364.90
2019-05-23T14:48:42.466Z,46337.56
2019-05-23T14:51:29.245Z,46930.98
2019-05-23T14:53:59.347Z,47007.95
2019-05-23T14:56:32.724Z,47301.65
2019-05-23T14:59:01.282Z,47343.18
2019-05-23T15:01:32.098Z,47465.73
2019-05-23T15:04:00.540Z,47934.72
2019-05-23T15:06:29.249Z,47668.31
2019-05-23T15:08:57.675Z,47871.91
2019-05-23T15:11:26.067Z,47753.40
2019-05-23T15:13:54.840Z,47432.31
2019-05-23T15:16:23.952Z,47133.53
2019-05-23T15:18:55.517Z,46945.15
2019-05-23T15:21:24.025Z,47457.63
2019-05-23T15:23:52.458Z,46934.02
2019-05-23T15:26:23.373Z,47574.11
2019-05-23T15:28:51.284Z,47417.12
2019-05-23T15:31:20.429Z,47683.51
2019-05-23T15:33:48.844Z,47347.23
2019-05-23T15:36:17.582Z,47574.11
2019-05-23T15:38:46.504Z,47506.25
2019-05-23T15:41:14.885Z,47441.43
2019-05-23T15:43:43.301Z,47734.15
2019-05-23T15:46:11.680Z,47781.76
2019-05-23T15:48:40.401Z,47418.13
2019-05-23T15:51:10.424Z,47576.14
2019-05-23T15:53:46.218Z,47183.15
2019-05-23T15:56:32.848Z,47417.12
2019-05-23T15:59:18.245Z,47783.79
2019-05-23T16:01:54.254Z,47807.09
2019-05-23T16:04:25.787Z,47928.64
2019-05-23T16:06:54.709Z,48162.65
2019-05-23T16:09:29.979Z,47981.32
2019-05-23T16:11:54.362Z,48120.10
2019-05-23T16:14:27.171Z,47979.29
2019-05-23T16:16:57.195Z,48059.32
2019-05-23T16:19:26.094Z,48068.44
2019-05-23T16:21:54.737Z,48087.68
2019-05-23T16:24:23.597Z,48265.98
2019-05-23T16:26:52.313Z,48497.98
2019-05-23T16:29:20.972Z,48257.88
2019-05-23T16:31:49.432Z,47914.46
2019-05-23T16:34:18.012Z,48120.10
2019-05-23T16:36:48.833Z,48178.86
2019-05-23T16:39:17.272Z,47985.37
2019-05-23T16:41:45.643Z,48246.73
2019-05-23T16:44:16.885Z,48365.27
2019-05-23T16:46:46.807Z,48260.92
2019-05-23T16:49:15.392Z,48335.89
2019-05-23T16:51:43.965Z,48270.04
2019-05-23T16:54:12.476Z,48648.94
2019-05-23T16:56:57.592Z,48581.06
2019-05-23T16:59:30.274Z,48424.02
2019-05-23T17:02:06.543Z,48621.59
2019-05-23T17:04:48.877Z,48725.95
2019-05-23T17:07:21.890Z,48695.55
2019-05-23T17:10:08.153Z,48620.57
2019-05-23T17:12:38.425Z,48600.31
2019-05-23T17:15:12.838Z,48799.91
2019-05-23T17:18:02.047Z,48861.71
2019-05-23T17:20:31.823Z,48740.13
2019-05-23T17:23:17.810Z,48528.37
2019-05-23T17:26:04.025Z,48353.11
2019-05-23T17:28:40.050Z,48520.27
2019-05-23T17:31:10.524Z,48392.62
2019-05-23T17:33:38.985Z,48749.25
2019-05-23T17:36:07.388Z,48596.26
2019-05-23T17:38:36.048Z,48828.28
2019-05-23T17:41:04.600Z,48512.17
2019-05-23T17:43:33.106Z,48976.21
2019-05-23T17:46:01.518Z,48841.45
2019-05-23T17:48:30.162Z,48909.34
2019-05-23T17:50:58.873Z,49121.11
2019-05-23T17:53:27.734Z,49322.76
2019-05-23T17:55:56.480Z,49351.13
2019-05-23T17:58:25.774Z,49373.43
2019-05-23T18:00:54.267Z,49398.76
2019-05-23T18:03:23.767Z,49687.58
2019-05-23T18:05:52.507Z,49667.31
2019-05-23T18:08:20.956Z,49684.54
2019-05-23T18:10:49.343Z,49613.60
2019-05-23T18:13:18.560Z,49856.83
2019-05-23T18:15:47.104Z,49991.62
2019-05-23T18:18:15.977Z,50001.76
2019-05-23T18:20:45.599Z,49992.64
2019-05-23T18:23:14.468Z,49961.22
2019-05-23T18:25:43.397Z,50075.75
2019-05-23T18:28:13.707Z,50130.48
2019-05-23T18:30:46.669Z,50002.77
2019-05-23T18:33:16.613Z,49963.25
2019-05-23T18:35:45.047Z,50248.05
2019-05-23T18:38:13.494Z,50096.02
2019-05-23T18:40:42.180Z,49865.95
2019-05-23T18:43:11.295Z,49920.68
2019-05-23T18:45:41.240Z,49773.72
2019-05-23T18:48:09.625Z,49705.82
2019-05-23T18:50:38.559Z,49706.84
2019-05-23T18:53:08.588Z,49663.26
2019-05-23T18:55:38.109Z,49610.56
2019-05-23T18:58:06.916Z,49745.35
2019-05-23T19:00:57.735Z,49922.71
2019-05-23T19:03:28.624Z,49996.69
2019-05-23T19:05:57.171Z,50006.83
2019-05-23T19:08:25.960Z,50063.59
2019-05-23T19:10:54.430Z,50162.91
2019-05-23T19:13:26.464Z,50370.70
2019-05-23T19:15:53.126Z,50297.72
2019-05-23T19:18:23.776Z,50167.98
2019-05-23T19:20:54.823Z,50135.55
2019-05-23T19:23:24.463Z,50039.26
2019-05-23T19:25:53.189Z,50039.26
2019-05-23T19:28:22.422Z,49959.19
2019-05-23T19:30:51.246Z,50070.68
2019-05-23T19:33:21.106Z,50146.70
2019-05-23T19:35:49.862Z,50168.99
2019-05-23T19:38:18.432Z,50081.83
2019-05-23T19:40:47.216Z,50066.62
2019-05-23T19:43:17.794Z,50384.89
2019-05-23T19:45:46.166Z,50549.10
2019-05-23T19:48:14.847Z,50512.61
2019-05-23T19:50:43.577Z,50549.10
2019-05-23T19:53:12.149Z,50423.41
2019-05-23T19:55:41.024Z,50326.10
2019-05-23T19:58:09.594Z,50204.47
2019-05-23T20:00:38.802Z,50143.66
2019-05-23T20:03:09.531Z,50162.91
2019-05-23T20:05:43.034Z,50175.07
2019-05-23T20:08:11.842Z,50229.81
2019-05-23T20:10:40.898Z,50309.88
2019-05-23T20:13:09.364Z,50353.46
2019-05-23T20:15:37.968Z,50396.04
2019-05-23T20:18:08.259Z,50404.15
2019-05-23T20:20:39.773Z,50368.67
2019-05-23T20:23:09.572Z,50352.45
2019-05-23T20:25:38.392Z,50365.63
2019-05-23T20:28:07.640Z,50391.98
2019-05-23T20:30:45.684Z,50383.87
2019-05-23T20:33:15.097Z,50855.23
2019-05-23T20:35:43.562Z,50788.33
2019-05-23T20:38:11.946Z,50760.96
2019-05-23T20:40:40.464Z,50782.25
2019-05-23T20:43:09.230Z,50822.80
2019-05-23T20:45:38.043Z,50938.36
2019-05-23T20:48:07.067Z,51032.64
2019-05-23T20:50:35.534Z,50982.97
2019-05-23T20:53:04.477Z,51038.73
2019-05-23T20:55:33.478Z,51027.57
2019-05-23T20:58:01.834Z,51067.11
2019-05-23T21:00:34.661Z,51046.84
2019-05-23T21:03:04.054Z,51097.53
2019-05-23T21:05:33.059Z,51141.12
2019-05-23T21:08:01.447Z,51110.70
2019-05-23T21:10:38.684Z,51119.83
2019-05-23T21:13:07.078Z,51158.36
2019-05-23T21:15:35.475Z,51123.88
2019-05-23T21:18:03.872Z,51098.54
2019-05-23T21:20:32.276Z,51111.72
2019-05-23T21:23:00.680Z,51076.23
2019-05-23T21:25:29.426Z,51175.59
2019-05-23T21:27:57.906Z,51151.26
2019-05-23T21:30:26.484Z,51122.87
2019-05-23T21:32:54.876Z,51100.57
2019-05-23T21:35:23.592Z,51143.14
2019-05-23T21:37:52.021Z,51229.32
2019-05-23T21:40:38.584Z,51302.32
2019-05-23T21:43:07.151Z,51310.43
2019-05-23T21:45:35.810Z,51274.95
2019-05-23T21:48:04.703Z,51308.40
2019-05-23T21:50:33.247Z,51387.48
2019-05-23T21:53:02.115Z,51374.30
2019-05-23T21:55:41.099Z,51448.32
2019-05-23T21:58:11.590Z,51451.36
2019-05-23T22:01:08.465Z,51398.64
2019-05-23T22:03:59.280Z,51430.07
2019-05-23T22:06:44.034Z,51448.32
2019-05-23T22:09:14.209Z,51341.86
2019-05-23T22:11:42.861Z,51386.47
2019-05-23T22:14:11.275Z,51353.01
2019-05-23T22:16:39.653Z,51368.22
2019-05-23T22:19:09.688Z,51303.33
2019-05-23T22:21:38.295Z,51538.55
2019-05-23T22:24:08.399Z,51429.05
2019-05-23T22:26:37.010Z,51440.21
2019-05-23T22:29:06.786Z,51418.91
2019-05-23T22:31:35.543Z,51437.16
2019-05-23T22:34:06.034Z,51433.11
2019-05-23T22:36:34.576Z,51565.93
2019-05-23T22:39:04.835Z,51448.32
2019-05-23T22:41:33.314Z,51514.22
2019-05-23T22:44:02.182Z,51542.61
2019-05-23T22:46:30.633Z,51410.80
2019-05-23T22:48:59.043Z,51451.36
2019-05-23T22:51:27.687Z,51554.78
2019-05-23T22:53:56.149Z,51553.76
2019-05-23T22:56:24.954Z,51512.19
2019-05-23T22:58:54.995Z,51504.08
2019-05-23T23:01:25.258Z,51455.41
2019-05-23T23:03:53.943Z,51356.05
2019-05-23T23:06:22.518Z,51341.86
2019-05-23T23:08:50.902Z,51296.23
2019-05-23T23:11:19.466Z,51409.79
2019-05-23T23:13:47.859Z,51421.96
2019-05-23T23:16:16.259Z,51353.01
2019-05-23T23:18:44.668Z,51397.62
2019-05-23T23:21:13.289Z,51290.15
2019-05-23T23:23:41.942Z,51361.12
2019-05-23T23:26:10.328Z,51484.82
2019-05-23T23:28:38.735Z,51431.08
2019-05-23T23:31:07.348Z,51574.04
2019-05-23T23:33:35.738Z,51555.79
2019-05-23T23:36:04.221Z,51488.87
2019-05-23T23:38:32.950Z,51593.30
2019-05-23T23:41:01.637Z,51640.96
2019-05-23T23:43:30.100Z,51646.03
2019-05-23T23:46:15.990Z,51639.95
2019-05-23T23:49:02.712Z,51673.41
2019-05-23T23:51:49.205Z,51713.96
2019-05-23T23:54:36.011Z,51739.31
2019-05-23T23:57:22.556Z,51729.17
2019-05-23T23:59:50.260Z,51756.55
